createdAt,value
2023-05-16T00:00:18.776Z,21.39
2023-05-16T00:00:50.285Z,21.39
2023-05-16T00:01:21.803Z,21.38
2023-05-16T00:01:53.320Z,21.38
2023-05-16T00:02:24.989Z,21.41
2023-05-16T00:02:56.581Z,21.40
2023-05-16T00:03:28.264Z,21.43
2023-05-16T00:04:00.004Z,21.41
2023-05-16T00:04:31.798Z,21.38
2023-05-16T00:05:03.892Z,21.38
2023-05-16T00:05:35.453Z,21.39
2023-05-16T00:06:07.028Z,21.38
2023-05-16T00:06:38.758Z,21.40
2023-05-16T00:07:10.383Z,21.38
2023-05-16T00:07:45.287Z,21.37
2023-05-16T00:08:16.763Z,21.38
2023-05-16T00:08:48.652Z,21.37
2023-05-16T00:09:20.176Z,21.37
2023-05-16T00:09:51.702Z,21.36
2023-05-16T00:10:23.367Z,21.36
2023-05-16T00:10:55.022Z,21.34
2023-05-16T00:11:26.798Z,21.34
2023-05-16T00:11:58.386Z,21.35
2023-05-16T00:12:29.885Z,21.35
2023-05-16T00:13:01.404Z,21.34
2023-05-16T00:13:32.953Z,21.35
2023-05-16T00:14:04.614Z,21.34
2023-05-16T00:14:36.162Z,21.35
2023-05-16T00:15:08.191Z,21.34
2023-05-16T00:15:39.739Z,21.33
2023-05-16T00:16:11.295Z,21.34
2023-05-16T00:16:42.842Z,21.34
2023-05-16T00:17:14.545Z,21.35
2023-05-16T00:17:46.509Z,21.34
2023-05-16T00:18:18.337Z,21.33
2023-05-16T00:18:50.082Z,21.33
2023-05-16T00:19:21.765Z,21.33
2023-05-16T00:19:53.321Z,21.34
2023-05-16T00:20:28.450Z,21.32
2023-05-16T00:21:00.406Z,21.30
2023-05-16T00:21:31.969Z,21.31
2023-05-16T00:22:03.538Z,21.32
2023-05-16T00:22:35.101Z,21.32
2023-05-16T00:23:06.608Z,21.32
2023-05-16T00:23:38.150Z,21.32
2023-05-16T00:24:09.688Z,21.28
2023-05-16T00:24:41.412Z,21.28
2023-05-16T00:25:12.885Z,21.25
2023-05-16T00:25:44.432Z,21.24
2023-05-16T00:26:16.050Z,21.26
2023-05-16T00:26:47.584Z,21.25
2023-05-16T00:27:19.136Z,21.26
2023-05-16T00:27:50.722Z,21.24
2023-05-16T00:28:22.217Z,21.26
2023-05-16T00:28:53.774Z,21.25
2023-05-16T00:29:25.305Z,21.24
2023-05-16T00:29:56.797Z,21.25
2023-05-16T00:30:28.625Z,21.24
2023-05-16T00:31:00.355Z,21.25
2023-05-16T00:31:32.063Z,21.25
2023-05-16T00:32:03.742Z,21.23
2023-05-16T00:32:36.038Z,21.24
2023-05-16T00:33:07.741Z,21.25
2023-05-16T00:33:39.275Z,21.24
2023-05-16T00:34:10.806Z,21.25
2023-05-16T00:34:42.446Z,21.26
2023-05-16T00:35:13.990Z,21.27
2023-05-16T00:35:45.503Z,21.26
2023-05-16T00:36:17.062Z,21.26
2023-05-16T00:36:49.833Z,21.26
2023-05-16T00:37:21.275Z,21.23
2023-05-16T00:37:52.795Z,21.24
2023-05-16T00:38:24.720Z,21.23
2023-05-16T00:38:56.236Z,21.20
2023-05-16T00:39:27.795Z,21.21
2023-05-16T00:39:59.396Z,21.21
2023-05-16T00:40:30.948Z,21.22
2023-05-16T00:41:02.547Z,21.23
2023-05-16T00:41:34.212Z,21.24
2023-05-16T00:42:05.762Z,21.20
2023-05-16T00:42:37.986Z,21.18
2023-05-16T00:43:09.506Z,21.20
2023-05-16T00:43:41.055Z,21.18
2023-05-16T00:44:12.651Z,21.20
2023-05-16T00:44:44.129Z,21.17
2023-05-16T00:45:15.667Z,21.19
2023-05-16T00:45:47.220Z,21.17
2023-05-16T00:46:18.904Z,21.19
2023-05-16T00:46:50.505Z,21.18
2023-05-16T00:47:22.077Z,21.18
2023-05-16T00:47:53.541Z,21.19
2023-05-16T00:48:25.111Z,21.20
2023-05-16T00:48:56.672Z,21.18
2023-05-16T00:49:28.373Z,21.21
2023-05-16T00:50:00.029Z,21.19
2023-05-16T00:50:32.513Z,21.19
2023-05-16T00:51:04.075Z,21.15
2023-05-16T00:51:35.679Z,21.17
2023-05-16T00:52:07.130Z,21.20
2023-05-16T00:52:38.655Z,21.19
2023-05-16T00:53:10.245Z,21.19
2023-05-16T00:53:41.733Z,21.19
2023-05-16T00:54:13.227Z,21.21
2023-05-16T00:54:44.748Z,21.19
2023-05-16T00:55:16.255Z,21.19
2023-05-16T00:55:47.768Z,21.18
2023-05-16T00:56:19.288Z,21.17
2023-05-16T00:56:50.780Z,21.18
2023-05-16T00:57:22.249Z,21.17
2023-05-16T00:57:53.853Z,21.16
2023-05-16T00:58:25.417Z,21.17
2023-05-16T00:58:57.093Z,21.17
2023-05-16T00:59:28.689Z,21.20
2023-05-16T01:00:00.237Z,21.19
2023-05-16T01:00:31.910Z,21.18
2023-05-16T01:01:03.530Z,21.17
2023-05-16T01:01:35.149Z,21.18
2023-05-16T01:02:06.762Z,21.17
2023-05-16T01:02:38.592Z,21.17
2023-05-16T01:03:10.738Z,21.15
2023-05-16T01:03:42.797Z,21.14
2023-05-16T01:04:14.435Z,21.15
2023-05-16T01:04:45.961Z,21.17
2023-05-16T01:05:17.506Z,21.17
2023-05-16T01:05:49.170Z,21.15
2023-05-16T01:06:20.734Z,21.16
2023-05-16T01:06:52.269Z,21.16
2023-05-16T01:07:23.810Z,21.15
2023-05-16T01:07:55.350Z,21.13
2023-05-16T01:08:26.925Z,21.13
2023-05-16T01:08:58.477Z,21.13
2023-05-16T01:09:29.985Z,21.13
2023-05-16T01:10:01.967Z,21.13
2023-05-16T01:10:38.349Z,21.12
2023-05-16T01:11:13.981Z,21.10
2023-05-16T01:12:03.897Z,21.10
2023-05-16T01:12:35.389Z,21.12
2023-05-16T01:13:09.323Z,21.12
2023-05-16T01:14:01.169Z,21.13
2023-05-16T01:14:37.930Z,21.14
2023-05-16T01:15:09.444Z,21.15
2023-05-16T01:15:47.681Z,21.17
2023-05-16T01:16:22.357Z,21.14
2023-05-16T01:17:12.146Z,21.15
2023-05-16T01:18:01.685Z,21.14
2023-05-16T01:18:52.886Z,21.17
2023-05-16T01:19:30.099Z,21.16
2023-05-16T01:20:10.918Z,21.15
2023-05-16T01:20:49.555Z,21.15
2023-05-16T01:21:25.697Z,21.14
2023-05-16T01:21:59.860Z,21.13
2023-05-16T01:22:46.223Z,21.11
2023-05-16T01:23:26.486Z,21.10
2023-05-16T01:24:03.675Z,21.12
2023-05-16T01:24:40.263Z,21.12
2023-05-16T01:25:30.290Z,21.13
2023-05-16T01:26:16.869Z,21.13
2023-05-16T01:26:48.437Z,21.10
2023-05-16T01:27:20.050Z,21.11
2023-05-16T01:27:52.063Z,21.09
2023-05-16T01:28:23.591Z,21.08
2023-05-16T01:28:55.102Z,21.10
2023-05-16T01:29:26.724Z,21.10
2023-05-16T01:29:58.274Z,21.08
2023-05-16T01:30:32.783Z,21.08
2023-05-16T01:31:04.553Z,21.08
2023-05-16T01:31:36.209Z,21.07
2023-05-16T01:32:07.822Z,21.07
2023-05-16T01:32:39.486Z,21.05
2023-05-16T01:33:11.036Z,21.07
2023-05-16T01:33:42.668Z,21.05
2023-05-16T01:34:14.355Z,21.05
2023-05-16T01:34:45.879Z,21.05
2023-05-16T01:35:17.607Z,21.05
2023-05-16T01:35:58.560Z,21.09
2023-05-16T01:36:30.076Z,21.09
2023-05-16T01:37:07.371Z,21.10
2023-05-16T01:37:41.488Z,21.11
2023-05-16T01:38:12.955Z,21.10
2023-05-16T01:38:44.500Z,21.08
2023-05-16T01:39:18.917Z,21.05
2023-05-16T01:39:57.642Z,21.06
2023-05-16T01:40:41.156Z,21.09
2023-05-16T01:41:12.691Z,21.08
2023-05-16T01:42:03.145Z,21.07
2023-05-16T01:42:35.175Z,21.06
2023-05-16T01:43:08.873Z,21.08
2023-05-16T01:43:43.613Z,21.09
2023-05-16T01:44:19.096Z,21.03
2023-05-16T01:44:53.149Z,21.06
2023-05-16T01:45:26.413Z,21.07
2023-05-16T01:46:00.349Z,21.04
2023-05-16T01:46:34.238Z,21.07
2023-05-16T01:47:09.876Z,21.07
2023-05-16T01:47:41.609Z,21.08
2023-05-16T01:48:16.767Z,21.08
2023-05-16T01:48:51.067Z,21.08
2023-05-16T01:49:34.334Z,21.09
2023-05-16T01:50:10.343Z,21.08
2023-05-16T01:50:45.920Z,21.07
2023-05-16T01:51:17.476Z,21.03
2023-05-16T01:51:50.702Z,21.03
2023-05-16T01:52:28.964Z,21.03
2023-05-16T01:53:00.938Z,20.99
2023-05-16T01:53:33.839Z,21.03
2023-05-16T01:54:05.883Z,21.01
2023-05-16T01:54:38.023Z,21.02
2023-05-16T01:55:15.181Z,21.02
2023-05-16T01:55:47.238Z,21.01
2023-05-16T01:56:18.788Z,21.01
2023-05-16T01:56:56.437Z,21.02
2023-05-16T01:57:28.123Z,21.00
2023-05-16T01:57:59.651Z,21.01
2023-05-16T01:58:32.088Z,21.03
2023-05-16T01:59:03.767Z,21.02
2023-05-16T01:59:35.596Z,21.02
2023-05-16T02:00:07.678Z,21.08
2023-05-16T02:00:39.911Z,21.05
2023-05-16T02:01:11.978Z,21.06
2023-05-16T02:01:43.712Z,21.03
2023-05-16T02:02:17.886Z,21.02
2023-05-16T02:02:49.708Z,21.05
2023-05-16T02:03:21.319Z,21.01
2023-05-16T02:03:53.027Z,21.05
2023-05-16T02:04:24.535Z,21.07
2023-05-16T02:04:56.002Z,21.07
2023-05-16T02:05:27.902Z,21.08
2023-05-16T02:05:59.726Z,21.08
2023-05-16T02:06:31.261Z,21.07
2023-05-16T02:07:02.774Z,21.07
2023-05-16T02:07:34.406Z,21.07
2023-05-16T02:08:06.135Z,21.08
2023-05-16T02:08:37.695Z,21.10
2023-05-16T02:09:41.766Z,21.12
2023-05-16T02:10:13.088Z,21.11
2023-05-16T02:10:44.412Z,21.08
2023-05-16T02:11:15.713Z,21.08
2023-05-16T02:11:47.029Z,21.10
2023-05-16T02:12:18.340Z,21.08
2023-05-16T02:12:50.249Z,21.07
2023-05-16T02:13:21.534Z,21.09
2023-05-16T02:13:52.787Z,21.09
2023-05-16T02:14:24.089Z,21.09
2023-05-16T02:14:55.384Z,21.06
2023-05-16T02:15:27.004Z,21.07
2023-05-16T02:15:58.422Z,21.05
2023-05-16T02:16:30.181Z,21.03
2023-05-16T02:17:01.732Z,21.07
2023-05-16T02:17:33.130Z,21.07
2023-05-16T02:18:04.545Z,21.09
2023-05-16T02:18:35.881Z,21.07
2023-05-16T02:19:07.216Z,21.05
2023-05-16T02:19:38.512Z,21.05
2023-05-16T02:20:10.104Z,21.02
2023-05-16T02:20:41.466Z,21.01
2023-05-16T02:21:12.750Z,21.03
2023-05-16T02:21:44.038Z,21.01
2023-05-16T02:22:15.330Z,21.01
2023-05-16T02:22:46.593Z,21.05
2023-05-16T02:23:17.903Z,21.09
2023-05-16T02:23:49.182Z,21.08
2023-05-16T02:24:20.471Z,21.07
2023-05-16T02:24:51.726Z,21.05
2023-05-16T02:25:23.064Z,21.02
2023-05-16T02:25:54.383Z,21.00
2023-05-16T02:26:25.671Z,21.01
2023-05-16T02:26:56.994Z,21.02
2023-05-16T02:27:28.282Z,21.04
2023-05-16T02:27:59.596Z,21.05
2023-05-16T02:28:30.874Z,21.01
2023-05-16T02:29:02.355Z,21.02
2023-05-16T02:29:33.650Z,21.02
2023-05-16T02:30:05.198Z,21.03
2023-05-16T02:30:36.540Z,21.05
2023-05-16T02:31:07.957Z,21.05
2023-05-16T02:31:39.417Z,21.08
2023-05-16T02:32:10.838Z,21.07
2023-05-16T02:32:42.150Z,21.05
2023-05-16T02:33:13.430Z,21.05
2023-05-16T02:33:44.715Z,21.05
2023-05-16T02:34:16.037Z,21.02
2023-05-16T02:34:47.403Z,21.06
2023-05-16T02:35:18.696Z,21.04
2023-05-16T02:35:49.975Z,21.06
2023-05-16T02:36:21.244Z,21.04
2023-05-16T02:36:52.526Z,21.00
2023-05-16T02:37:23.826Z,21.00
2023-05-16T02:37:55.092Z,20.99
2023-05-16T02:38:26.373Z,21.01
2023-05-16T02:38:57.696Z,21.00
2023-05-16T02:39:28.961Z,21.01
2023-05-16T02:40:00.205Z,21.00
2023-05-16T02:40:31.478Z,21.01
2023-05-16T02:41:02.790Z,21.04
2023-05-16T02:41:34.109Z,21.03
2023-05-16T02:42:06.300Z,21.04
2023-05-16T02:42:37.587Z,21.02
2023-05-16T02:43:08.917Z,21.01
2023-05-16T02:43:40.271Z,21.02
2023-05-16T02:44:11.538Z,21.00
2023-05-16T02:44:42.804Z,20.98
2023-05-16T02:45:14.140Z,20.98
2023-05-16T02:45:45.530Z,20.98
2023-05-16T02:46:35.163Z,20.99
2023-05-16T02:47:06.477Z,21.00
2023-05-16T02:47:37.782Z,21.01
2023-05-16T02:48:09.166Z,21.03
2023-05-16T02:48:40.514Z,20.98
2023-05-16T02:49:11.791Z,20.99
2023-05-16T02:49:43.091Z,21.00
2023-05-16T02:50:14.336Z,20.99
2023-05-16T02:50:45.611Z,20.98
2023-05-16T02:51:16.866Z,20.97
2023-05-16T02:51:48.331Z,20.98
2023-05-16T02:52:19.684Z,20.98
2023-05-16T02:52:50.952Z,20.96
2023-05-16T02:53:22.261Z,20.95
2023-05-16T02:53:53.556Z,20.97
2023-05-16T02:54:24.856Z,20.95
2023-05-16T02:55:15.982Z,20.95
2023-05-16T02:55:47.407Z,20.97
2023-05-16T02:56:18.897Z,20.96
2023-05-16T02:56:50.225Z,20.95
2023-05-16T02:57:21.571Z,20.94
2023-05-16T02:57:52.872Z,20.95
2023-05-16T02:58:24.170Z,20.94
2023-05-16T02:58:55.460Z,20.94
2023-05-16T02:59:26.849Z,20.95
2023-05-16T02:59:58.141Z,20.93
2023-05-16T03:00:29.612Z,20.96
2023-05-16T03:01:00.963Z,20.93
2023-05-16T03:01:32.301Z,20.92
2023-05-16T03:02:03.748Z,20.93
2023-05-16T03:02:35.181Z,20.93
2023-05-16T03:03:06.670Z,20.94
2023-05-16T03:03:38.082Z,20.91
2023-05-16T03:04:09.526Z,20.94
2023-05-16T03:04:40.931Z,20.92
2023-05-16T03:05:12.319Z,20.91
2023-05-16T03:05:43.609Z,20.92
2023-05-16T03:06:14.867Z,20.87
2023-05-16T03:06:46.174Z,20.89
2023-05-16T03:07:17.459Z,20.88
2023-05-16T03:07:48.709Z,20.89
2023-05-16T03:08:19.997Z,20.89
2023-05-16T03:08:51.303Z,20.88
2023-05-16T03:09:22.608Z,20.86
2023-05-16T03:09:53.854Z,20.86
2023-05-16T03:10:25.112Z,20.88
2023-05-16T03:10:56.378Z,20.85
2023-05-16T03:11:27.672Z,20.86
2023-05-16T03:11:58.946Z,20.88
2023-05-16T03:12:30.256Z,20.85
2023-05-16T03:13:01.585Z,20.86
2023-05-16T03:13:32.859Z,20.84
2023-05-16T03:14:04.144Z,20.85
2023-05-16T03:14:35.413Z,20.83
2023-05-16T03:15:07.022Z,20.81
2023-05-16T03:15:38.316Z,20.80
2023-05-16T03:16:09.669Z,20.81
2023-05-16T03:16:41.170Z,20.84
2023-05-16T03:17:12.523Z,20.89
2023-05-16T03:17:43.924Z,20.84
2023-05-16T03:18:15.315Z,20.84
2023-05-16T03:18:46.669Z,20.87
2023-05-16T03:19:18.128Z,20.87
2023-05-16T03:19:49.498Z,20.84
2023-05-16T03:20:20.792Z,20.87
2023-05-16T03:20:52.076Z,20.85
2023-05-16T03:21:23.355Z,20.84
2023-05-16T03:21:54.624Z,20.84
2023-05-16T03:22:25.901Z,20.83
2023-05-16T03:22:57.181Z,20.84
2023-05-16T03:23:28.451Z,20.82
2023-05-16T03:23:59.793Z,20.83
2023-05-16T03:24:31.176Z,20.84
2023-05-16T03:25:02.467Z,20.84
2023-05-16T03:25:34.267Z,20.84
2023-05-16T03:26:05.627Z,20.84
2023-05-16T03:26:36.998Z,20.84
2023-05-16T03:27:08.334Z,20.83
2023-05-16T03:27:39.625Z,20.84
2023-05-16T03:28:11.968Z,20.82
2023-05-16T03:28:44.089Z,20.82
2023-05-16T03:29:15.343Z,20.85
2023-05-16T03:29:46.616Z,20.85
2023-05-16T03:30:17.989Z,20.83
2023-05-16T03:30:49.285Z,20.82
2023-05-16T03:31:20.797Z,20.84
2023-05-16T03:31:52.196Z,20.81
2023-05-16T03:32:23.558Z,20.82
2023-05-16T03:32:55.217Z,20.82
2023-05-16T03:33:26.601Z,20.78
2023-05-16T03:33:57.900Z,20.79
2023-05-16T03:34:29.163Z,20.78
2023-05-16T03:35:00.583Z,20.80
2023-05-16T03:35:32.035Z,20.79
2023-05-16T03:36:03.393Z,20.78
2023-05-16T03:36:34.753Z,20.79
2023-05-16T03:37:06.032Z,20.80
2023-05-16T03:37:37.575Z,20.79
2023-05-16T03:38:08.874Z,20.77
2023-05-16T03:38:40.269Z,20.78
2023-05-16T03:39:11.588Z,20.79
2023-05-16T03:39:42.889Z,20.79
2023-05-16T03:40:14.184Z,20.78
2023-05-16T03:40:45.506Z,20.80
2023-05-16T03:41:16.796Z,20.79
2023-05-16T03:41:48.076Z,20.76
2023-05-16T03:42:19.350Z,20.74
2023-05-16T03:42:50.627Z,20.73
2023-05-16T03:43:21.972Z,20.72
2023-05-16T03:43:53.276Z,20.73
2023-05-16T03:44:24.613Z,20.75
2023-05-16T03:44:55.918Z,20.76
2023-05-16T03:45:27.417Z,20.77
2023-05-16T03:46:00.907Z,20.74
2023-05-16T03:46:32.349Z,20.73
2023-05-16T03:47:03.704Z,20.76
2023-05-16T03:47:35.165Z,20.75
2023-05-16T03:48:06.673Z,20.75
2023-05-16T03:48:38.115Z,20.75
2023-05-16T03:49:09.450Z,20.73
2023-05-16T03:49:40.696Z,20.74
2023-05-16T03:50:11.988Z,20.73
2023-05-16T03:50:43.259Z,20.73
2023-05-16T03:51:14.547Z,20.70
2023-05-16T03:51:45.795Z,20.71
2023-05-16T03:52:17.096Z,20.74
2023-05-16T03:52:48.401Z,20.75
2023-05-16T03:53:19.696Z,20.71
2023-05-16T03:53:50.983Z,20.71
2023-05-16T03:54:22.309Z,20.70
2023-05-16T03:54:53.627Z,20.70
2023-05-16T03:55:25.182Z,20.73
2023-05-16T03:55:56.672Z,20.71
2023-05-16T03:56:28.196Z,20.70
2023-05-16T03:56:59.536Z,20.71
2023-05-16T03:57:31.080Z,20.75
2023-05-16T03:58:02.385Z,20.75
2023-05-16T03:58:33.684Z,20.71
2023-05-16T03:59:04.979Z,20.75
2023-05-16T03:59:36.253Z,20.77
2023-05-16T04:00:08.027Z,20.74
2023-05-16T04:00:39.352Z,20.71
2023-05-16T04:01:10.652Z,20.71
2023-05-16T04:01:41.981Z,20.71
2023-05-16T04:02:13.336Z,20.73
2023-05-16T04:02:44.779Z,20.73
2023-05-16T04:03:16.412Z,20.73
2023-05-16T04:03:47.730Z,20.70
2023-05-16T04:04:18.964Z,20.74
2023-05-16T04:04:50.241Z,20.75
2023-05-16T04:05:21.631Z,20.75
2023-05-16T04:05:53.086Z,20.74
2023-05-16T04:06:24.418Z,20.72
2023-05-16T04:06:55.713Z,20.71
2023-05-16T04:07:26.993Z,20.74
2023-05-16T04:07:58.277Z,20.73
2023-05-16T04:08:29.660Z,20.73
2023-05-16T04:09:00.926Z,20.75
2023-05-16T04:09:32.192Z,20.76
2023-05-16T04:10:03.918Z,20.76
2023-05-16T04:10:35.201Z,20.72
2023-05-16T04:11:06.487Z,20.75
2023-05-16T04:11:37.789Z,20.73
2023-05-16T04:12:09.061Z,20.76
2023-05-16T04:12:40.350Z,20.75
2023-05-16T04:13:11.673Z,20.72
2023-05-16T04:13:42.987Z,20.71
2023-05-16T04:14:14.592Z,20.72
2023-05-16T04:14:45.925Z,20.70
2023-05-16T04:15:17.238Z,20.71
2023-05-16T04:15:48.529Z,20.69
2023-05-16T04:16:19.952Z,20.67
2023-05-16T04:16:51.383Z,20.68
2023-05-16T04:17:22.896Z,20.70
2023-05-16T04:17:54.253Z,20.72
2023-05-16T04:18:25.615Z,20.69
2023-05-16T04:18:56.927Z,20.70
2023-05-16T04:19:28.235Z,20.67
2023-05-16T04:19:59.539Z,20.69
2023-05-16T04:20:32.829Z,20.69
2023-05-16T04:21:04.403Z,20.67
2023-05-16T04:21:35.787Z,20.67
2023-05-16T04:22:07.063Z,20.69
2023-05-16T04:22:38.400Z,20.68
2023-05-16T04:23:09.722Z,20.69
2023-05-16T04:23:41.288Z,20.70
2023-05-16T04:24:12.641Z,20.71
2023-05-16T04:24:43.949Z,20.73
2023-05-16T04:25:15.269Z,20.73
2023-05-16T04:25:46.550Z,20.69
2023-05-16T04:26:17.863Z,20.70
2023-05-16T04:26:49.244Z,20.72
2023-05-16T04:27:20.628Z,20.67
2023-05-16T04:27:51.937Z,20.67
2023-05-16T04:28:23.235Z,20.67
2023-05-16T04:28:54.538Z,20.64
2023-05-16T04:29:25.852Z,20.65
2023-05-16T04:29:57.137Z,20.67
2023-05-16T04:30:28.395Z,20.65
2023-05-16T04:30:59.689Z,20.66
2023-05-16T04:31:31.102Z,20.66
2023-05-16T04:32:02.612Z,20.69
2023-05-16T04:32:34.035Z,20.65
2023-05-16T04:33:05.454Z,20.66
2023-05-16T04:33:36.813Z,20.66
2023-05-16T04:34:08.112Z,20.71
2023-05-16T04:34:40.252Z,20.74
2023-05-16T04:35:11.906Z,20.69
2023-05-16T04:35:43.296Z,20.70
2023-05-16T04:36:14.554Z,20.70
2023-05-16T04:36:45.839Z,20.71
2023-05-16T04:37:17.144Z,20.69
2023-05-16T04:37:48.480Z,20.69
2023-05-16T04:38:19.760Z,20.72
2023-05-16T04:38:51.065Z,20.68
2023-05-16T04:39:22.349Z,20.66
2023-05-16T04:39:53.646Z,20.69
2023-05-16T04:40:24.909Z,20.68
2023-05-16T04:40:56.213Z,20.66
2023-05-16T04:41:27.503Z,20.71
2023-05-16T04:41:58.799Z,20.67
2023-05-16T04:42:30.097Z,20.66
2023-05-16T04:43:01.937Z,20.68
2023-05-16T04:43:33.293Z,20.69
2023-05-16T04:44:04.574Z,20.66
2023-05-16T04:44:35.883Z,20.67
2023-05-16T04:45:07.542Z,20.66
2023-05-16T04:45:38.831Z,20.66
2023-05-16T04:46:10.244Z,20.66
2023-05-16T04:46:41.737Z,20.67
2023-05-16T04:47:13.396Z,20.64
2023-05-16T04:47:44.709Z,20.65
2023-05-16T04:48:16.004Z,20.65
2023-05-16T04:48:47.288Z,20.66
2023-05-16T04:49:18.877Z,20.65
2023-05-16T04:49:50.141Z,20.63
2023-05-16T04:50:21.405Z,20.69
2023-05-16T04:50:52.702Z,20.65
2023-05-16T04:51:23.977Z,20.64
2023-05-16T04:51:55.245Z,20.69
2023-05-16T04:52:26.535Z,20.68
2023-05-16T04:52:57.937Z,20.68
2023-05-16T04:53:29.262Z,20.67
2023-05-16T04:54:00.558Z,20.66
2023-05-16T04:54:31.824Z,20.67
2023-05-16T04:55:03.287Z,20.71
2023-05-16T04:55:34.612Z,20.69
2023-05-16T04:56:05.998Z,20.66
2023-05-16T04:56:37.261Z,20.66
2023-05-16T04:57:08.537Z,20.65
2023-05-16T04:57:39.801Z,20.64
2023-05-16T04:58:11.120Z,20.63
2023-05-16T04:58:42.977Z,20.63
2023-05-16T04:59:14.308Z,20.66
2023-05-16T04:59:45.602Z,20.64
2023-05-16T05:00:17.343Z,20.62
2023-05-16T05:00:48.603Z,20.62
2023-05-16T05:01:20.099Z,20.61
2023-05-16T05:01:51.485Z,20.64
2023-05-16T05:02:22.837Z,20.62
2023-05-16T05:02:54.299Z,20.63
2023-05-16T05:03:25.681Z,20.62
2023-05-16T05:03:56.957Z,20.60
2023-05-16T05:04:28.365Z,20.62
2023-05-16T05:04:59.702Z,20.61
2023-05-16T05:05:31.303Z,20.61
2023-05-16T05:06:03.014Z,20.61
2023-05-16T05:06:34.315Z,20.62
2023-05-16T05:07:05.700Z,20.64
2023-05-16T05:07:36.955Z,20.62
2023-05-16T05:08:08.210Z,20.60
2023-05-16T05:08:39.538Z,20.61
2023-05-16T05:09:10.852Z,20.60
2023-05-16T05:09:42.135Z,20.62
2023-05-16T05:10:13.403Z,20.60
2023-05-16T05:10:44.696Z,20.58
2023-05-16T05:11:15.967Z,20.57
2023-05-16T05:11:47.248Z,20.60
2023-05-16T05:12:18.532Z,20.56
2023-05-16T05:12:49.827Z,20.56
2023-05-16T05:13:21.115Z,20.60
2023-05-16T05:13:53.102Z,20.60
2023-05-16T05:14:24.483Z,20.61
2023-05-16T05:14:55.751Z,20.58
2023-05-16T05:15:27.126Z,20.56
2023-05-16T05:15:58.703Z,20.57
2023-05-16T05:16:29.947Z,20.58
2023-05-16T05:17:01.249Z,20.59
2023-05-16T05:17:32.684Z,20.58
2023-05-16T05:18:04.247Z,20.59
2023-05-16T05:18:35.640Z,20.59
2023-05-16T05:19:07.044Z,20.61
2023-05-16T05:19:38.738Z,20.60
2023-05-16T05:20:10.422Z,20.57
2023-05-16T05:20:41.731Z,20.53
2023-05-16T05:21:13.013Z,20.53
2023-05-16T05:21:44.335Z,20.56
2023-05-16T05:22:15.619Z,20.56
2023-05-16T05:22:46.919Z,20.57
2023-05-16T05:23:18.254Z,20.58
2023-05-16T05:23:49.539Z,20.57
2023-05-16T05:24:20.815Z,20.58
2023-05-16T05:24:52.122Z,20.56
2023-05-16T05:25:23.458Z,20.58
2023-05-16T05:25:54.708Z,20.59
2023-05-16T05:26:25.966Z,20.59
2023-05-16T05:26:57.257Z,20.61
2023-05-16T05:27:28.559Z,20.61
2023-05-16T05:27:59.864Z,20.58
2023-05-16T05:28:31.151Z,20.58
2023-05-16T05:29:05.726Z,20.56
2023-05-16T05:29:37.654Z,20.55
2023-05-16T05:30:09.052Z,20.56
2023-05-16T05:30:42.288Z,20.57
2023-05-16T05:31:14.491Z,20.55
2023-05-16T05:31:45.781Z,20.55
2023-05-16T05:32:17.078Z,20.55
2023-05-16T05:32:48.414Z,20.56
2023-05-16T05:33:19.832Z,20.55
2023-05-16T05:33:51.145Z,20.57
2023-05-16T05:34:22.421Z,20.58
2023-05-16T05:34:53.678Z,20.58
2023-05-16T05:35:25.072Z,20.57
2023-05-16T05:35:56.562Z,20.58
2023-05-16T05:36:27.912Z,20.59
2023-05-16T05:36:59.225Z,20.57
2023-05-16T05:37:30.517Z,20.57
2023-05-16T05:38:01.904Z,20.60
2023-05-16T05:38:33.161Z,20.61
2023-05-16T05:39:04.455Z,20.59
2023-05-16T05:39:35.741Z,20.58
2023-05-16T05:40:07.335Z,20.57
2023-05-16T05:40:38.623Z,20.58
2023-05-16T05:41:09.891Z,20.59
2023-05-16T05:41:41.195Z,20.58
2023-05-16T05:42:12.542Z,20.55
2023-05-16T05:42:46.713Z,20.55
2023-05-16T05:43:18.423Z,20.55
2023-05-16T05:43:49.699Z,20.55
2023-05-16T05:44:20.946Z,20.55
2023-05-16T05:44:52.258Z,20.56
2023-05-16T05:45:23.584Z,20.56
2023-05-16T05:45:55.170Z,20.56
2023-05-16T05:46:26.584Z,20.56
2023-05-16T05:46:57.948Z,20.54
2023-05-16T05:47:29.390Z,20.54
2023-05-16T05:48:00.745Z,20.58
2023-05-16T05:48:32.076Z,20.55
2023-05-16T05:49:03.347Z,20.54
2023-05-16T05:49:34.628Z,20.52
2023-05-16T05:50:06.260Z,20.54
2023-05-16T05:50:37.530Z,20.53
2023-05-16T05:51:08.782Z,20.53
2023-05-16T05:51:40.131Z,20.52
2023-05-16T05:52:11.404Z,20.52
2023-05-16T05:52:42.676Z,20.52
2023-05-16T05:53:13.963Z,20.51
2023-05-16T05:53:45.248Z,20.53
2023-05-16T05:54:16.517Z,20.53
2023-05-16T05:54:47.931Z,20.56
2023-05-16T05:55:19.233Z,20.54
2023-05-16T05:55:50.530Z,20.54
2023-05-16T05:56:21.794Z,20.56
2023-05-16T05:56:53.099Z,20.61
2023-05-16T05:57:24.393Z,20.59
2023-05-16T05:57:55.677Z,20.58
2023-05-16T05:58:26.942Z,20.56
2023-05-16T05:58:58.228Z,20.56
2023-05-16T05:59:29.551Z,20.57
2023-05-16T06:00:00.834Z,20.58
2023-05-16T06:00:32.140Z,20.57
2023-05-16T06:01:03.471Z,20.58
2023-05-16T06:01:34.745Z,20.53
2023-05-16T06:02:06.397Z,20.54
2023-05-16T06:02:37.788Z,20.54
2023-05-16T06:03:09.149Z,20.52
2023-05-16T06:03:40.483Z,20.50
2023-05-16T06:04:11.831Z,20.50
2023-05-16T06:04:43.114Z,20.54
2023-05-16T06:05:14.407Z,20.55
2023-05-16T06:05:45.837Z,20.54
2023-05-16T06:06:17.548Z,20.53
2023-05-16T06:06:48.852Z,20.51
2023-05-16T06:07:20.129Z,20.52
2023-05-16T06:07:51.401Z,20.50
2023-05-16T06:08:22.822Z,20.54
2023-05-16T06:08:54.138Z,20.52
2023-05-16T06:09:25.448Z,20.51
2023-05-16T06:09:56.716Z,20.53
2023-05-16T06:10:27.984Z,20.52
2023-05-16T06:10:59.594Z,20.54
2023-05-16T06:11:30.923Z,20.54
2023-05-16T06:12:02.212Z,20.56
2023-05-16T06:12:33.530Z,20.56
2023-05-16T06:13:04.803Z,20.57
2023-05-16T06:13:36.058Z,20.55
2023-05-16T06:14:07.317Z,20.58
2023-05-16T06:14:39.103Z,20.55
2023-05-16T06:15:10.525Z,20.54
2023-05-16T06:15:41.802Z,20.54
2023-05-16T06:16:13.152Z,20.54
2023-05-16T06:16:44.502Z,20.51
2023-05-16T06:17:15.926Z,20.56
2023-05-16T06:17:47.329Z,20.55
2023-05-16T06:18:18.724Z,20.53
2023-05-16T06:18:50.035Z,20.52
2023-05-16T06:19:21.472Z,20.52
2023-05-16T06:19:52.857Z,20.54
2023-05-16T06:20:24.150Z,20.54
2023-05-16T06:20:55.424Z,20.54
2023-05-16T06:21:26.779Z,20.52
2023-05-16T06:21:58.111Z,20.52
2023-05-16T06:22:29.437Z,20.51
2023-05-16T06:23:00.987Z,20.52
2023-05-16T06:23:32.542Z,20.50
2023-05-16T06:24:03.866Z,20.49
2023-05-16T06:24:35.126Z,20.49
2023-05-16T06:25:06.562Z,20.49
2023-05-16T06:25:37.854Z,20.51
2023-05-16T06:26:09.141Z,20.51
2023-05-16T06:26:40.473Z,20.49
2023-05-16T06:27:11.835Z,20.48
2023-05-16T06:27:43.092Z,20.48
2023-05-16T06:28:14.363Z,20.49
2023-05-16T06:28:45.641Z,20.49
2023-05-16T06:29:16.933Z,20.50
2023-05-16T06:29:48.228Z,20.51
2023-05-16T06:30:19.492Z,20.53
2023-05-16T06:30:50.810Z,20.53
2023-05-16T06:31:22.230Z,20.52
2023-05-16T06:31:53.757Z,20.54
2023-05-16T06:32:25.246Z,20.54
2023-05-16T06:32:56.592Z,20.56
2023-05-16T06:33:27.942Z,20.54
2023-05-16T06:33:59.211Z,20.54
2023-05-16T06:34:30.510Z,20.53
2023-05-16T06:35:01.830Z,20.51
2023-05-16T06:35:33.179Z,20.50
2023-05-16T06:36:04.508Z,20.48
2023-05-16T06:36:35.772Z,20.49
2023-05-16T06:37:07.060Z,20.51
2023-05-16T06:37:38.946Z,20.50
2023-05-16T06:38:11.394Z,20.49
2023-05-16T06:38:42.683Z,20.47
2023-05-16T06:39:13.992Z,20.49
2023-05-16T06:39:45.273Z,20.50
2023-05-16T06:40:16.558Z,20.48
2023-05-16T06:40:47.852Z,20.48
2023-05-16T06:41:19.159Z,20.46
2023-05-16T06:41:50.473Z,20.48
2023-05-16T06:42:21.797Z,20.48
2023-05-16T06:42:53.128Z,20.50
2023-05-16T06:43:24.424Z,20.51
2023-05-16T06:43:55.726Z,20.51
2023-05-16T06:44:27.057Z,20.54
2023-05-16T06:44:58.381Z,20.51
2023-05-16T06:45:29.897Z,20.50
2023-05-16T06:46:01.382Z,20.49
2023-05-16T06:46:32.894Z,20.48
2023-05-16T06:47:04.554Z,20.50
2023-05-16T06:47:36.041Z,20.51
2023-05-16T06:48:07.541Z,20.52
2023-05-16T06:48:39.028Z,20.54
2023-05-16T06:49:10.362Z,20.52
2023-05-16T06:49:41.683Z,20.51
2023-05-16T06:50:13.023Z,20.49
2023-05-16T06:50:47.516Z,20.51
2023-05-16T06:51:18.839Z,20.50
2023-05-16T06:51:50.164Z,20.53
2023-05-16T06:52:21.897Z,20.52